Time;durP1;ratioP1;P1;durP2;ratioP2;P2;SDS_P1;SDS_P2;PMS_P1;PMS_P2;Temp;Humidity;BMP_temperature;BMP_pressure;BME280_temperature;BME280_humidity;BME280_pressure;Samples;Min_cycle;Max_cycle;Signal;HPM_P1;HPM_P2
2022/01/25 00:26:40;;;;;;;;;;;22.90;22.70;;;;;;5142314;27;20297;-48
2022/01/25 00:29:14;;;;;;;;;;;22.90;22.70;;;;;;5143748;27;19931;-46
2022/01/25 00:31:40;;;;;;;;;;;22.90;22.70;;;;;;5149043;27;19923;-45
2022/01/25 00:34:05;;;;;;;;;;;23.00;22.60;;;;;;5143700;27;20558;-44
2022/01/25 00:36:31;;;;;;;;;;;23.00;22.60;;;;;;5144029;27;20013;-44
2022/01/25 00:38:57;;;;;;;;;;;23.10;22.50;;;;;;5149400;27;19923;-45
2022/01/25 00:41:23;;;;;;;;;;;23.00;22.60;;;;;;5143124;27;19923;-44
2022/01/25 00:43:49;;;;;;;;;;;22.90;22.70;;;;;;5143228;27;20003;-50
2022/01/25 00:46:15;;;;;;;;;;;22.90;22.60;;;;;;5147484;27;20021;-46
2022/01/25 00:48:47;;;;;;;;;;;23.10;22.40;;;;;;5143389;27;20339;-46
2022/01/25 00:56:21;;;;;;;;;;;23.10;22.40;;;;;;5143495;27;20442;-50
2022/01/25 00:58:46;;;;;;;;;;;23.20;22.30;;;;;;5148058;27;19923;-45
2022/01/25 01:01:12;;;;;;;;;;;23.00;22.40;;;;;;5143168;27;20278;-46
2022/01/25 01:03:38;;;;;;;;;;;23.20;22.20;;;;;;5141383;27;19923;-46
2022/01/25 01:06:05;;;;;;;;;;;23.30;22.20;;;;;;5148468;27;19948;-48
2022/01/25 01:08:32;;;;;;;;;;;23.30;22.20;;;;;;5142836;27;19927;-47
2022/01/25 01:10:59;;;;;;;;;;;23.30;22.20;;;;;;5143301;27;20523;-51
2022/01/25 01:40:53;;;;;;;;;;;22.70;22.80;;;;;;5146095;27;19931;-49
2022/01/25 01:43:28;;;;;;;;;;;22.60;22.90;;;;;;5142558;27;19923;-50
2022/01/25 01:48:49;;;;;;;;;;;22.70;22.90;;;;;;5148292;27;19929;-47
2022/01/25 01:51:39;;;;;;;;;;;22.60;22.90;;;;;;5142542;27;19923;-47
2022/01/25 01:54:05;;;;;;;;;;;22.70;22.90;;;;;;5141254;27;20017;-50
2022/01/25 01:56:31;;;;;;;;;;;22.70;22.80;;;;;;5147665;27;20370;-47
2022/01/25 01:58:57;;;;;;;;;;;22.60;22.90;;;;;;5122024;27;19938;-47
2022/01/25 02:01:26;;;;;;;;;;;22.70;22.80;;;;;;5142048;27;19923;-48
2022/01/25 02:03:52;;;;;;;;;;;22.60;22.90;;;;;;5147326;27;19975;-45
2022/01/25 02:06:18;;;;;;;;;;;22.60;22.90;;;;;;5137574;27;19926;-46
2022/01/25 02:08:44;;;;;;;;;;;22.60;22.80;;;;;;5147473;27;20461;-49
2022/01/25 02:11:09;;;;;;;;;;;22.70;22.80;;;;;;5142532;27;19927;-48
2022/01/25 02:13:37;;;;;;;;;;;22.60;22.80;;;;;;5123099;27;20028;-47
2022/01/25 02:16:07;;;;;;;;;;;22.60;22.90;;;;;;5147285;27;19929;-46
2022/01/25 02:24:01;;;;;;;;;;;22.60;22.80;;;;;;5147376;27;19927;-47
2022/01/25 02:26:27;;;;;;;;;;;22.60;22.80;;;;;;5142038;27;19923;-46
2022/01/25 02:28:53;;;;;;;;;;;22.70;22.70;;;;;;5141952;27;19927;-45
2022/01/25 02:31:19;;;;;;;;;;;22.50;22.80;;;;;;5146984;27;19936;-45
2022/01/25 02:33:45;;;;;;;;;;;22.70;22.70;;;;;;5141904;27;19930;-46
2022/01/25 02:36:15;;;;;;;;;;;22.60;22.70;;;;;;5121418;27;19923;-48
2022/01/25 02:38:41;;;;;;;;;;;22.70;22.60;;;;;;5147270;27;19928;-46
2022/01/25 02:41:07;;;;;;;;;;;22.60;22.60;;;;;;5141599;27;20048;-49
2022/01/25 02:43:34;;;;;;;;;;;22.60;22.60;;;;;;5147531;27;20084;-46
2022/01/25 02:48:29;;;;;;;;;;;22.60;22.50;;;;;;5142588;27;20002;-47
2022/01/25 02:48:50;;;;;;;;;;;22.60;22.60;;;;;;5135357;27;20022;-47
2022/01/25 02:51:16;;;;;;;;;;;22.60;22.50;;;;;;5146622;27;19923;-51
2022/01/25 02:53:42;;;;;;;;;;;22.60;22.50;;;;;;5140284;27;19923;-49
2022/01/25 02:56:08;;;;;;;;;;;22.60;22.40;;;;;;5140442;27;19931;-47
2022/01/25 02:58:33;;;;;;;;;;;22.50;22.50;;;;;;5146643;27;20166;-47
2022/01/25 03:00:59;;;;;;;;;;;22.70;22.30;;;;;;5141429;27;20294;-47
2022/01/25 03:03:25;;;;;;;;;;;22.60;22.40;;;;;;5141725;27;20307;-49
2022/01/25 03:05:51;;;;;;;;;;;22.60;22.40;;;;;;5147076;27;19930;-47
2022/01/25 03:08:16;;;;;;;;;;;22.60;22.50;;;;;;5140806;27;19923;-46
2022/01/25 03:10:43;;;;;;;;;;;22.60;22.30;;;;;;5123515;27;19924;-54
2022/01/25 03:13:14;;;;;;;;;;;22.60;22.40;;;;;;5141413;27;19927;-47
2022/01/25 03:18:37;;;;;;;;;;;22.50;22.50;;;;;;5148050;27;19965;-46
2022/01/25 03:21:14;;;;;;;;;;;22.60;22.30;;;;;;5150453;27;19923;-45
2022/01/25 03:23:40;;;;;;;;;;;22.60;22.30;;;;;;5145380;27;20327;-45
2022/01/25 03:26:06;;;;;;;;;;;22.60;22.30;;;;;;5150280;27;19996;-46
2022/01/25 03:28:32;;;;;;;;;;;22.50;22.40;;;;;;5144971;27;19961;-47
2022/01/25 03:30:58;;;;;;;;;;;22.60;22.30;;;;;;5143879;27;19966;-45
2022/01/25 03:33:23;;;;;;;;;;;22.60;22.20;;;;;;5149826;27;19927;-45
2022/01/25 03:35:49;;;;;;;;;;;22.60;22.30;;;;;;5144695;27;19976;-45
2022/01/25 03:38:15;;;;;;;;;;;22.60;22.30;;;;;;5145122;27;20130;-46
2022/01/25 03:40:41;;;;;;;;;;;22.70;22.30;;;;;;5150602;27;19926;-46
2022/01/25 03:43:08;;;;;;;;;;;22.60;22.30;;;;;;5126505;27;21896;-46
2022/01/25 03:45:36;;;;;;;;;;;22.50;22.30;;;;;;5147967;27;20388;-54
2022/01/25 03:50:40;;;;;;;;;;;22.60;22.30;;;;;;5142752;27;20026;-47
2022/01/25 03:53:07;;;;;;;;;;;22.70;22.20;;;;;;5149804;27;19927;-45
2022/01/25 03:55:32;;;;;;;;;;;22.60;22.30;;;;;;5144607;27;19930;-44
2022/01/25 03:57:58;;;;;;;;;;;22.70;22.10;;;;;;5144888;27;19975;-44
2022/01/25 04:00:24;;;;;;;;;;;22.60;22.20;;;;;;5150213;27;19976;-44
2022/01/25 04:03:03;;;;;;;;;;;22.70;22.20;;;;;;5144159;27;20332;-44
2022/01/25 04:08:07;;;;;;;;;;;22.70;22.10;;;;;;5148326;27;19926;-46
2022/01/25 04:10:33;;;;;;;;;;;22.70;22.10;;;;;;5143745;27;19930;-45
2022/01/25 04:12:58;;;;;;;;;;;22.80;22.10;;;;;;5143868;27;19927;-44
2022/01/25 04:15:24;;;;;;;;;;;22.70;22.10;;;;;;5149658;27;19923;-46
2022/01/25 04:17:59;;;;;;;;;;;22.80;22.00;;;;;;5144468;27;20007;-45
2022/01/25 04:20:32;;;;;;;;;;;22.70;22.10;;;;;;5146103;27;19929;-51
2022/01/25 04:25:43;;;;;;;;;;;22.70;22.00;;;;;;5143566;27;20013;-44
2022/01/25 04:28:08;;;;;;;;;;;22.80;22.00;;;;;;5146033;27;19923;-51
2022/01/25 04:30:34;;;;;;;;;;;22.80;21.90;;;;;;5145565;27;20017;-44
2022/01/25 04:33:03;;;;;;;;;;;22.80;22.00;;;;;;5143830;27;20218;-44
2022/01/25 04:35:45;;;;;;;;;;;22.80;21.90;;;;;;5149770;27;19923;-44
2022/01/25 04:49:22;;;;;;;;;;;22.80;21.80;;;;;;5143394;27;20284;-45
2022/01/25 04:52:02;;;;;;;;;;;22.90;21.80;;;;;;5143453;27;20290;-45
2022/01/25 04:54:41;;;;;;;;;;;22.80;21.90;;;;;;5149069;27;19927;-44
2022/01/25 05:02:16;;;;;;;;;;;22.80;21.90;;;;;;5148670;27;19923;-43
2022/01/25 05:04:51;;;;;;;;;;;22.90;21.80;;;;;;5141402;27;19923;-44
2022/01/25 05:09:51;;;;;;;;;;;23.00;21.70;;;;;;5148527;27;19926;-44
2022/01/25 05:12:17;;;;;;;;;;;22.90;21.80;;;;;;5143286;27;19930;-47
2022/01/25 05:14:59;;;;;;;;;;;22.90;21.80;;;;;;5143783;27;20376;-53
2022/01/25 05:17:43;;;;;;;;;;;22.90;21.90;;;;;;5148095;27;20227;-45
2022/01/25 05:22:53;;;;;;;;;;;23.00;21.70;;;;;;5141047;27;20149;-45
2022/01/25 05:25:19;;;;;;;;;;;22.90;21.70;;;;;;5148168;27;19927;-44
2022/01/25 05:27:45;;;;;;;;;;;23.00;21.70;;;;;;5142562;27;19923;-44
2022/01/25 05:30:11;;;;;;;;;;;23.00;21.70;;;;;;5117619;27;19924;-55
2022/01/25 05:32:37;;;;;;;;;;;22.90;21.60;;;;;;5147841;27;19929;-45
2022/01/25 05:35:03;;;;;;;;;;;23.00;21.60;;;;;;5142611;27;20013;-44
2022/01/25 05:37:32;;;;;;;;;;;23.00;21.60;;;;;;5147546;27;20023;-45
2022/01/25 05:39:59;;;;;;;;;;;23.00;21.60;;;;;;5141407;27;19941;-45
2022/01/25 05:45:16;;;;;;;;;;;23.20;21.50;;;;;;5147726;27;19930;-49
2022/01/25 05:47:43;;;;;;;;;;;23.10;21.50;;;;;;5142701;27;19995;-46
2022/01/25 05:50:09;;;;;;;;;;;23.10;21.50;;;;;;5138660;27;20739;-49
2022/01/25 05:52:35;;;;;;;;;;;23.10;21.50;;;;;;5129592;27;19923;-50
2022/01/25 05:55:02;;;;;;;;;;;22.90;21.70;;;;;;5141454;27;19977;-49
2022/01/25 05:57:27;;;;;;;;;;;22.80;21.80;;;;;;5142463;27;20191;-46
2022/01/25 05:59:54;;;;;;;;;;;22.80;21.80;;;;;;5145791;27;20064;-49
2022/01/25 06:02:22;;;;;;;;;;;22.80;21.80;;;;;;5142211;27;20018;-46
2022/01/25 06:04:48;;;;;;;;;;;22.80;21.90;;;;;;5147631;27;19922;-47
2022/01/25 06:07:14;;;;;;;;;;;22.80;21.80;;;;;;5142445;27;19930;-46
2022/01/25 06:09:41;;;;;;;;;;;22.80;21.70;;;;;;5142121;27;19927;-44
2022/01/25 06:12:07;;;;;;;;;;;22.80;21.70;;;;;;5147403;27;19949;-45
2022/01/25 06:14:33;;;;;;;;;;;22.80;21.80;;;;;;5141420;27;20022;-45
2022/01/25 06:16:58;;;;;;;;;;;22.80;21.70;;;;;;5141348;27;20793;-45
2022/01/25 06:19:24;;;;;;;;;;;22.90;21.60;;;;;;5146191;27;20289;-46
2022/01/25 06:21:50;;;;;;;;;;;22.90;21.70;;;;;;5141833;27;20309;-47
2022/01/25 06:24:16;;;;;;;;;;;23.00;21.60;;;;;;5145876;27;19962;-53
2022/01/25 06:26:41;;;;;;;;;;;23.00;21.60;;;;;;5144298;27;19923;-47
2022/01/25 06:29:07;;;;;;;;;;;23.10;21.50;;;;;;5141874;27;20418;-48
2022/01/25 06:31:33;;;;;;;;;;;23.00;21.60;;;;;;5146533;27;19927;-47
2022/01/25 06:33:59;;;;;;;;;;;23.10;21.40;;;;;;5141772;27;20021;-47
2022/01/25 06:36:25;;;;;;;;;;;23.20;21.40;;;;;;5140187;27;20338;-50
2022/01/25 06:38:51;;;;;;;;;;;23.20;21.40;;;;;;5146815;27;20410;-51
2022/01/25 06:41:17;;;;;;;;;;;23.30;21.30;;;;;;5141640;27;19930;-52
2022/01/25 06:43:43;;;;;;;;;;;23.30;21.40;;;;;;5142957;27;19987;-53
2022/01/25 06:46:09;;;;;;;;;;;23.10;21.50;;;;;;5146754;27;20312;-48
2022/01/25 06:48:35;;;;;;;;;;;23.30;21.40;;;;;;5141740;27;19922;-47
2022/01/25 06:51:01;;;;;;;;;;;23.20;21.30;;;;;;5146596;27;19923;-49
2022/01/25 06:53:27;;;;;;;;;;;23.20;21.40;;;;;;5142774;27;19979;-51
2022/01/25 06:55:52;;;;;;;;;;;23.20;21.40;;;;;;5143988;27;20336;-44
2022/01/25 06:58:18;;;;;;;;;;;23.10;21.40;;;;;;5151102;27;19926;-48
2022/01/25 07:00:44;;;;;;;;;;;23.20;21.40;;;;;;5145346;27;20298;-46
2022/01/25 07:03:10;;;;;;;;;;;23.30;21.30;;;;;;5145721;27;20301;-45
2022/01/25 07:05:35;;;;;;;;;;;23.20;21.30;;;;;;5151285;27;19927;-46
2022/01/25 07:08:01;;;;;;;;;;;23.10;21.40;;;;;;5145356;27;19927;-47
2022/01/25 07:10:27;;;;;;;;;;;23.30;21.30;;;;;;5150566;27;19983;-46
2022/01/25 07:12:53;;;;;;;;;;;23.30;21.30;;;;;;5144123;27;19967;-50
2022/01/25 07:15:19;;;;;;;;;;;23.20;21.40;;;;;;5144446;27;19930;-47
2022/01/25 07:17:44;;;;;;;;;;;23.20;21.30;;;;;;5150674;27;19927;-44
2022/01/25 07:20:10;;;;;;;;;;;23.20;21.30;;;;;;5145468;27;19931;-48
2022/01/25 07:22:36;;;;;;;;;;;23.20;21.30;;;;;;5145548;27;20021;-46
2022/01/25 07:25:03;;;;;;;;;;;23.30;21.30;;;;;;5132327;27;20297;-49
2022/01/25 07:27:29;;;;;;;;;;;23.20;21.30;;;;;;5144378;27;20309;-45
2022/01/25 07:29:55;;;;;;;;;;;23.20;21.30;;;;;;5150285;27;19950;-46
2022/01/25 07:32:20;;;;;;;;;;;23.20;21.30;;;;;;5143160;27;20378;-49
2022/01/25 07:34:46;;;;;;;;;;;23.20;21.30;;;;;;5144660;27;19923;-46
2022/01/25 07:37:12;;;;;;;;;;;23.10;21.40;;;;;;5150210;27;19931;-49
2022/01/25 07:39:38;;;;;;;;;;;23.10;21.30;;;;;;5145072;27;19923;-45
2022/01/25 07:42:04;;;;;;;;;;;23.00;21.40;;;;;;5145089;27;20031;-46
2022/01/25 07:44:32;;;;;;;;;;;23.00;21.50;;;;;;5150388;27;19931;-47
2022/01/25 07:47:00;;;;;;;;;;;23.00;21.40;;;;;;5144187;27;19974;-45
2022/01/25 07:49:29;;;;;;;;;;;23.00;21.50;;;;;;5147759;27;20329;-51
2022/01/25 07:51:55;;;;;;;;;;;23.00;21.40;;;;;;5146748;27;19924;-44
2022/01/25 07:54:21;;;;;;;;;;;23.00;21.40;;;;;;5144472;27;19930;-45
2022/01/25 07:56:46;;;;;;;;;;;23.00;21.40;;;;;;5150122;27;19980;-45
2022/01/25 07:59:12;;;;;;;;;;;23.00;21.30;;;;;;5120934;27;20016;-43
2022/01/25 08:01:38;;;;;;;;;;;23.00;21.40;;;;;;5144640;27;19923;-48
2022/01/25 08:04:04;;;;;;;;;;;23.10;21.40;;;;;;5148482;27;20062;-51
2022/01/25 08:06:30;;;;;;;;;;;23.10;21.40;;;;;;5144562;27;19970;-48
2022/01/25 08:08:56;;;;;;;;;;;23.20;21.30;;;;;;5143071;27;20430;-56
2022/01/25 08:11:22;;;;;;;;;;;23.10;21.30;;;;;;5149278;27;20374;-43
2022/01/25 08:13:49;;;;;;;;;;;23.20;21.30;;;;;;5143922;27;19931;-45
2022/01/25 08:16:15;;;;;;;;;;;23.20;21.30;;;;;;5149838;27;19927;-49
2022/01/25 08:18:41;;;;;;;;;;;23.10;21.40;;;;;;5145312;27;19923;-51
2022/01/25 08:21:07;;;;;;;;;;;23.10;21.40;;;;;;5144040;27;19923;-50
2022/01/25 08:23:32;;;;;;;;;;;23.00;21.50;;;;;;5148681;27;20183;-49
2022/01/25 08:25:58;;;;;;;;;;;22.90;21.50;;;;;;5143798;27;19923;-47
2022/01/25 08:28:24;;;;;;;;;;;22.80;21.40;;;;;;5142117;27;19987;-48
2022/01/25 08:30:50;;;;;;;;;;;22.80;21.50;;;;;;5149077;27;19934;-48
2022/01/25 08:33:15;;;;;;;;;;;22.90;21.40;;;;;;5143697;27;19934;-48
2022/01/25 08:35:41;;;;;;;;;;;22.80;21.50;;;;;;5149670;27;20393;-48
2022/01/25 08:38:07;;;;;;;;;;;22.80;21.40;;;;;;5144174;27;20297;-47
2022/01/25 08:40:34;;;;;;;;;;;22.80;21.50;;;;;;5143591;27;19929;-45
2022/01/25 08:43:00;;;;;;;;;;;22.80;21.40;;;;;;5148867;27;19948;-47
2022/01/25 08:45:26;;;;;;;;;;;22.80;21.50;;;;;;5142424;27;19933;-47
2022/01/25 08:47:52;;;;;;;;;;;22.80;21.40;;;;;;5142577;27;20496;-45
2022/01/25 08:50:18;;;;;;;;;;;22.90;21.30;;;;;;5148652;27;19970;-46
2022/01/25 08:52:43;;;;;;;;;;;22.80;21.40;;;;;;5143716;27;19927;-46
2022/01/25 08:55:09;;;;;;;;;;;22.80;21.40;;;;;;5149069;27;20025;-51
2022/01/25 08:57:35;;;;;;;;;;;22.90;21.40;;;;;;5143556;27;19931;-47
2022/01/25 09:00:01;;;;;;;;;;;22.90;21.30;;;;;;5142513;27;19927;-45
2022/01/25 09:02:27;;;;;;;;;;;22.80;21.40;;;;;;5148690;27;19927;-46
2022/01/25 09:04:53;;;;;;;;;;;22.80;21.40;;;;;;5141309;27;19938;-45
2022/01/25 09:07:19;;;;;;;;;;;22.80;21.40;;;;;;5143015;27;19983;-47
2022/01/25 09:09:46;;;;;;;;;;;22.90;21.40;;;;;;5148439;27;19977;-46
2022/01/25 09:12:12;;;;;;;;;;;22.90;21.30;;;;;;5143118;27;19926;-49
2022/01/25 09:14:37;;;;;;;;;;;22.90;21.30;;;;;;5145663;27;20311;-51
2022/01/25 09:17:07;;;;;;;;;;;22.90;21.40;;;;;;5146184;27;19934;-47
2022/01/25 09:19:34;;;;;;;;;;;22.90;21.30;;;;;;5142629;27;20009;-45
2022/01/25 09:21:59;;;;;;;;;;;22.90;21.30;;;;;;5147523;27;19923;-45
2022/01/25 09:24:26;;;;;;;;;;;22.90;21.40;;;;;;5141520;27;20010;-46
2022/01/25 09:26:51;;;;;;;;;;;22.80;21.50;;;;;;5142802;27;19922;-49
2022/01/25 09:29:17;;;;;;;;;;;22.80;21.50;;;;;;5148389;27;19934;-49
2022/01/25 09:31:43;;;;;;;;;;;22.80;21.60;;;;;;5143084;27;19930;-47
2022/01/25 09:34:09;;;;;;;;;;;22.90;21.50;;;;;;5142835;27;19958;-45
2022/01/25 09:36:34;;;;;;;;;;;23.00;21.50;;;;;;5147375;27;20598;-46
2022/01/25 09:39:00;;;;;;;;;;;22.90;21.60;;;;;;5142212;27;19936;-45
2022/01/25 09:41:28;;;;;;;;;;;22.80;21.80;;;;;;5146006;27;20096;-47
2022/01/25 09:43:54;;;;;;;;;;;22.80;21.70;;;;;;5141989;27;19955;-44
2022/01/25 09:46:20;;;;;;;;;;;23.00;21.60;;;;;;5141848;27;19962;-46
2022/01/25 09:48:45;;;;;;;;;;;23.00;21.60;;;;;;5147828;27;20352;-45
2022/01/25 09:51:11;;;;;;;;;;;23.00;21.70;;;;;;5142219;27;19923;-45
2022/01/25 09:53:37;;;;;;;;;;;23.00;21.70;;;;;;5142211;27;19923;-46
2022/01/25 09:56:03;;;;;;;;;;;23.00;21.60;;;;;;5146927;27;20123;-48
2022/01/25 09:58:29;;;;;;;;;;;23.00;21.70;;;;;;5141636;27;19923;-51
2022/01/25 10:00:57;;;;;;;;;;;23.00;21.80;;;;;;5145770;27;19947;-46
2022/01/25 10:03:31;;;;;;;;;;;22.90;21.80;;;;;;5106985;27;19926;-47
2022/01/25 10:06:00;;;;;;;;;;;23.00;21.80;;;;;;5142147;27;20392;-46
2022/01/25 10:08:27;;;;;;;;;;;23.00;21.80;;;;;;5147680;27;19927;-45
2022/01/25 10:10:53;;;;;;;;;;;23.00;21.80;;;;;;5142081;27;19933;-45
2022/01/25 10:13:22;;;;;;;;;;;23.10;21.80;;;;;;5137223;27;20381;-44
2022/01/25 10:15:51;;;;;;;;;;;23.10;21.80;;;;;;5146935;27;19929;-47
2022/01/25 10:18:17;;;;;;;;;;;23.00;21.90;;;;;;5139708;27;20331;-54
2022/01/25 10:20:44;;;;;;;;;;;23.00;21.90;;;;;;5141259;27;19937;-45
2022/01/25 10:23:11;;;;;;;;;;;23.00;21.90;;;;;;5146970;27;19927;-48
2022/01/25 10:25:46;;;;;;;;;;;23.20;21.80;;;;;;5138030;27;20406;-51
2022/01/25 10:28:13;;;;;;;;;;;23.10;21.90;;;;;;5143445;27;19927;-55
2022/01/25 10:30:41;;;;;;;;;;;23.20;21.80;;;;;;5145628;27;19930;-46
2022/01/25 10:33:28;;;;;;;;;;;23.30;21.70;;;;;;5141208;27;20404;-50
2022/01/25 10:35:55;;;;;;;;;;;23.20;21.80;;;;;;5143899;27;19923;-54
2022/01/25 10:38:24;;;;;;;;;;;23.10;22.00;;;;;;5143424;27;19923;-50
2022/01/25 10:40:57;;;;;;;;;;;23.00;22.00;;;;;;5141383;27;19988;-51
2022/01/25 10:43:23;;;;;;;;;;;23.10;22.00;;;;;;5111516;27;20465;-48
2022/01/25 10:46:02;;;;;;;;;;;22.90;22.20;;;;;;5141572;27;20018;-48
2022/01/25 10:48:29;;;;;;;;;;;23.00;22.20;;;;;;5141319;27;19923;-47
2022/01/25 10:51:01;;;;;;;;;;;23.00;22.20;;;;;;5146198;27;19934;-47
2022/01/25 10:53:27;;;;;;;;;;;23.00;22.20;;;;;;5140955;27;19969;-45
2022/01/25 10:55:53;;;;;;;;;;;23.10;22.10;;;;;;5120548;27;20369;-47
2022/01/25 10:58:19;;;;;;;;;;;23.00;22.20;;;;;;5146472;27;20250;-47
2022/01/25 11:00:45;;;;;;;;;;;22.90;22.30;;;;;;5141148;27;19975;-49
2022/01/25 11:03:11;;;;;;;;;;;23.10;22.10;;;;;;5141598;27;19971;-47
2022/01/25 11:05:37;;;;;;;;;;;23.10;22.20;;;;;;5128311;27;19934;-45
2022/01/25 11:08:16;;;;;;;;;;;23.20;22.10;;;;;;5141227;27;19971;-47
2022/01/25 11:10:46;;;;;;;;;;;23.10;22.20;;;;;;5144858;27;19927;-52
2022/01/25 11:13:32;;;;;;;;;;;23.00;22.30;;;;;;5143408;27;19923;-49
2022/01/25 11:15:58;;;;;;;;;;;23.10;22.30;;;;;;5140450;27;20297;-45
2022/01/25 11:18:25;;;;;;;;;;;23.00;22.30;;;;;;5127572;27;19939;-56
2022/01/25 11:20:51;;;;;;;;;;;23.20;22.20;;;;;;5142598;27;19987;-52
2022/01/25 11:23:17;;;;;;;;;;;23.10;22.30;;;;;;5141394;27;20315;-49
2022/01/25 11:25:43;;;;;;;;;;;23.10;22.40;;;;;;5146744;27;20018;-48
2022/01/25 11:28:09;;;;;;;;;;;23.10;22.30;;;;;;5140590;27;19976;-46
2022/01/25 11:30:37;;;;;;;;;;;23.00;22.50;;;;;;5122756;27;19923;-45
2022/01/25 11:33:04;;;;;;;;;;;23.10;22.40;;;;;;5126279;27;19946;-47
2022/01/25 11:35:30;;;;;;;;;;;23.10;22.50;;;;;;5140892;27;19983;-44
2022/01/25 11:37:56;;;;;;;;;;;23.10;22.50;;;;;;5123393;27;19923;-53
2022/01/25 11:40:30;;;;;;;;;;;23.20;22.40;;;;;;5131236;27;19927;-49
2022/01/25 11:43:05;;;;;;;;;;;23.20;22.60;;;;;;5145069;27;20382;-45
2022/01/25 11:45:41;;;;;;;;;;;23.30;22.50;;;;;;5148759;27;20358;-52
2022/01/25 11:48:07;;;;;;;;;;;23.20;22.60;;;;;;5149867;27;20370;-51
2022/01/25 11:50:34;;;;;;;;;;;23.20;22.60;;;;;;5143403;27;19984;-47
2022/01/25 11:53:05;;;;;;;;;;;23.30;22.60;;;;;;5123124;27;19923;-48
2022/01/25 11:55:33;;;;;;;;;;;23.10;22.70;;;;;;5144393;27;19967;-48
2022/01/25 11:58:00;;;;;;;;;;;23.10;22.80;;;;;;5144774;27;19927;-46
2022/01/25 12:00:55;;;;;;;;;;;23.10;22.80;;;;;;5150481;27;19979;-46
2022/01/25 12:03:24;;;;;;;;;;;23.10;22.80;;;;;;5122983;27;19925;-48
2022/01/25 12:06:04;;;;;;;;;;;23.20;22.80;;;;;;5143989;27;20345;-49
2022/01/25 12:08:39;;;;;;;;;;;23.30;22.70;;;;;;5148691;27;19929;-50
2022/01/25 12:11:23;;;;;;;;;;;23.20;22.80;;;;;;5126177;27;19923;-51
2022/01/25 12:14:08;;;;;;;;;;;23.20;22.80;;;;;;5144042;27;20309;-48
2022/01/25 12:16:44;;;;;;;;;;;23.20;22.90;;;;;;5146862;27;19972;-51
2022/01/25 12:19:11;;;;;;;;;;;23.30;22.80;;;;;;5149897;27;19930;-45
2022/01/25 12:21:53;;;;;;;;;;;23.30;22.80;;;;;;5144150;27;20494;-48
2022/01/25 12:24:23;;;;;;;;;;;23.30;22.90;;;;;;5145726;27;19982;-58
2022/01/25 12:26:58;;;;;;;;;;;23.10;23.10;;;;;;5148427;27;19923;-52
2022/01/25 12:29:30;;;;;;;;;;;23.00;23.10;;;;;;5143030;27;20400;-52
2022/01/25 12:32:14;;;;;;;;;;;22.90;23.30;;;;;;5148666;27;19966;-56
2022/01/25 12:34:55;;;;;;;;;;;22.90;23.40;;;;;;5130994;27;20380;-51
2022/01/25 12:37:40;;;;;;;;;;;22.90;23.30;;;;;;5144237;27;19927;-50
2022/01/25 12:40:38;;;;;;;;;;;22.90;23.30;;;;;;5143831;27;19923;-50
2022/01/25 12:43:05;;;;;;;;;;;22.90;23.40;;;;;;5096898;27;19927;-51
2022/01/25 12:45:40;;;;;;;;;;;22.90;23.30;;;;;;5142513;27;20382;-49
2022/01/25 12:48:16;;;;;;;;;;;22.80;23.40;;;;;;5142689;27;19923;-51
2022/01/25 12:50:43;;;;;;;;;;;22.80;23.30;;;;;;5122508;27;19923;-50
2022/01/25 12:53:10;;;;;;;;;;;22.80;23.30;;;;;;5143735;27;20339;-51
2022/01/25 12:55:37;;;;;;;;;;;22.80;23.30;;;;;;5139615;27;19971;-51
2022/01/25 12:58:03;;;;;;;;;;;22.80;23.30;;;;;;5149175;27;19930;-52
2022/01/25 13:00:36;;;;;;;;;;;22.90;23.20;;;;;;5142585;27;20013;-51
2022/01/25 13:03:22;;;;;;;;;;;22.80;23.30;;;;;;5145000;27;20052;-57
2022/01/25 13:05:51;;;;;;;;;;;22.80;23.30;;;;;;5128493;27;20413;-48
2022/01/25 13:08:18;;;;;;;;;;;22.80;23.40;;;;;;5142661;27;19930;-51
2022/01/25 13:10:44;;;;;;;;;;;22.80;23.40;;;;;;5146185;27;19923;-55
2022/01/25 13:13:21;;;;;;;;;;;22.80;23.40;;;;;;5146361;27;19930;-49
2022/01/25 13:18:13;;;;;;;;;;;22.80;23.50;;;;;;5147807;27;19926;-49
2022/01/25 13:20:41;;;;;;;;;;;22.80;23.50;;;;;;5142766;27;19922;-50
2022/01/25 13:23:07;;;;;;;;;;;22.80;23.50;;;;;;5141167;27;20305;-48
2022/01/25 13:28:32;;;;;;;;;;;22.80;23.30;;;;;;5142528;27;20065;-52
2022/01/25 13:30:59;;;;;;;;;;;22.80;23.30;;;;;;5124450;27;20379;-46
2022/01/25 13:33:25;;;;;;;;;;;22.80;23.10;;;;;;5148082;27;19923;-51
2022/01/25 13:35:56;;;;;;;;;;;22.80;23.30;;;;;;5142320;27;19954;-48
2022/01/25 13:38:30;;;;;;;;;;;22.90;23.20;;;;;;5142084;27;20615;-54
2022/01/25 13:41:16;;;;;;;;;;;22.90;23.20;;;;;;5147020;27;19930;-51
2022/01/25 13:46:21;;;;;;;;;;;22.90;23.20;;;;;;5142130;27;19923;-50
2022/01/25 13:48:47;;;;;;;;;;;22.80;23.30;;;;;;5148063;27;19927;-50
2022/01/25 13:51:14;;;;;;;;;;;22.80;23.30;;;;;;5142754;27;20007;-50
2022/01/25 13:53:40;;;;;;;;;;;22.90;23.30;;;;;;5142124;27;20676;-48
2022/01/25 13:56:07;;;;;;;;;;;22.80;23.40;;;;;;5147112;27;19934;-48
2022/01/25 13:58:34;;;;;;;;;;;22.80;23.40;;;;;;5141728;27;19923;-51
2022/01/25 14:01:01;;;;;;;;;;;22.80;23.60;;;;;;5144293;27;19923;-57
2022/01/25 14:03:31;;;;;;;;;;;22.80;23.60;;;;;;5143841;27;19926;-52
2022/01/25 14:05:57;;;;;;;;;;;22.90;23.60;;;;;;5141817;27;20017;-49
2022/01/25 14:08:32;;;;;;;;;;;22.80;23.60;;;;;;5147782;27;19937;-52
2022/01/25 14:11:01;;;;;;;;;;;22.80;23.60;;;;;;5142184;27;19927;-48
2022/01/25 14:21:58;;;;;;;;;;;22.90;23.60;;;;;;5141736;27;19936;-50
2022/01/25 14:24:28;;;;;;;;;;;22.90;23.60;;;;;;5125532;27;19953;-53
2022/01/25 14:26:54;;;;;;;;;;;22.80;23.70;;;;;;5147476;27;20872;-47
2022/01/25 14:29:22;;;;;;;;;;;22.90;23.60;;;;;;5115755;27;19924;-50
2022/01/25 14:31:48;;;;;;;;;;;22.90;23.70;;;;;;5146697;27;19930;-51
2022/01/25 14:34:14;;;;;;;;;;;22.90;23.60;;;;;;5141277;27;19924;-49
2022/01/25 14:36:42;;;;;;;;;;;22.90;23.60;;;;;;5140021;27;19938;-53
2022/01/25 14:39:08;;;;;;;;;;;22.90;23.70;;;;;;5146570;27;19931;-47
2022/01/25 14:41:36;;;;;;;;;;;22.90;23.60;;;;;;5123084;27;19929;-49
2022/01/25 14:44:08;;;;;;;;;;;22.90;23.60;;;;;;5141891;27;19924;-49
2022/01/25 14:46:35;;;;;;;;;;;23.00;23.50;;;;;;5147321;27;20010;-50
2022/01/25 14:49:13;;;;;;;;;;;23.00;23.40;;;;;;5141859;27;19971;-51
2022/01/25 14:51:48;;;;;;;;;;;22.90;23.60;;;;;;5141053;27;20300;-51
2022/01/25 14:54:15;;;;;;;;;;;23.00;23.50;;;;;;5146252;27;20341;-46
2022/01/25 14:56:50;;;;;;;;;;;23.00;23.40;;;;;;5139939;27;19923;-49
2022/01/25 14:59:23;;;;;;;;;;;22.90;23.50;;;;;;5141127;27;19923;-46
2022/01/25 15:02:00;;;;;;;;;;;22.90;23.50;;;;;;5147071;27;19949;-47
2022/01/25 15:04:26;;;;;;;;;;;22.90;23.50;;;;;;5141614;27;19938;-49
2022/01/25 15:06:52;;;;;;;;;;;22.90;23.50;;;;;;5144491;27;19923;-51
2022/01/25 15:09:18;;;;;;;;;;;22.80;23.60;;;;;;5143937;27;20022;-48
2022/01/25 15:11:44;;;;;;;;;;;22.80;23.60;;;;;;5141398;27;20372;-49
2022/01/25 15:14:18;;;;;;;;;;;23.00;23.50;;;;;;5147709;27;19933;-49
2022/01/25 15:16:44;;;;;;;;;;;22.80;23.60;;;;;;5145076;27;19927;-51
2022/01/25 15:19:09;;;;;;;;;;;22.90;23.60;;;;;;5144852;27;19976;-49
2022/01/25 15:21:35;;;;;;;;;;;22.90;23.50;;;;;;5150841;27;19927;-47
2022/01/25 15:24:01;;;;;;;;;;;22.90;23.50;;;;;;5145579;27;19930;-48
2022/01/25 15:26:35;;;;;;;;;;;22.90;23.50;;;;;;5145198;27;20267;-47
2022/01/25 15:29:03;;;;;;;;;;;23.10;23.40;;;;;;5149952;27;20234;-46
2022/01/25 15:31:29;;;;;;;;;;;23.00;23.40;;;;;;5144191;27;20578;-48
2022/01/25 15:33:55;;;;;;;;;;;23.00;23.30;;;;;;5129183;27;19923;-51
2022/01/25 15:36:21;;;;;;;;;;;23.10;23.30;;;;;;5146792;27;19923;-48
2022/01/25 15:38:48;;;;;;;;;;;23.00;23.30;;;;;;5144876;27;20370;-47
2022/01/25 15:41:14;;;;;;;;;;;22.90;23.30;;;;;;5150457;27;20025;-47
2022/01/25 15:43:49;;;;;;;;;;;22.80;23.50;;;;;;5116274;27;19935;-46
2022/01/25 15:46:30;;;;;;;;;;;22.90;23.40;;;;;;5142218;27;19923;-46
2022/01/25 15:48:57;;;;;;;;;;;23.00;23.40;;;;;;5150278;27;20017;-49
2022/01/25 15:51:23;;;;;;;;;;;22.90;23.50;;;;;;5142893;27;20429;-49
2022/01/25 15:53:49;;;;;;;;;;;22.90;23.50;;;;;;5144246;27;19923;-44
2022/01/25 15:56:15;;;;;;;;;;;22.90;23.50;;;;;;5149837;27;20440;-45
2022/01/25 15:58:43;;;;;;;;;;;22.80;23.50;;;;;;5145159;27;19935;-46
2022/01/25 16:01:11;;;;;;;;;;;22.90;23.40;;;;;;5145160;27;20290;-51
2022/01/25 16:03:38;;;;;;;;;;;22.80;23.50;;;;;;5149881;27;20021;-47
2022/01/25 16:06:04;;;;;;;;;;;23.00;23.40;;;;;;5125405;27;19951;-48
2022/01/25 16:08:30;;;;;;;;;;;22.90;23.50;;;;;;5148687;27;20378;-49
2022/01/25 16:10:59;;;;;;;;;;;22.90;23.50;;;;;;5124754;27;19927;-49
2022/01/25 16:13:25;;;;;;;;;;;22.80;23.60;;;;;;5143980;27;19927;-46
2022/01/25 16:15:51;;;;;;;;;;;22.80;23.50;;;;;;5149695;27;19927;-46
2022/01/25 16:18:17;;;;;;;;;;;22.80;23.50;;;;;;5143169;27;19946;-50
2022/01/25 16:20:43;;;;;;;;;;;22.90;23.50;;;;;;5144139;27;20127;-47